Time;durP1;ratioP1;P1;durP2;ratioP2;P2;SDS_P1;SDS_P2;PMS_P1;PMS_P2;Temp;Humidity;BMP_temperature;BMP_pressure;BME280_temperature;BME280_humidity;BME280_pressure;Samples;Min_cycle;Max_cycle;Signal;HPM_P1;HPM_P2
2023/11/10 00:00:36;;;;;;;3.50;0.30;;;8.80;99.90;;;;;;5090517;28;20409;-68
2023/11/10 00:03:02;;;;;;;3.60;0.30;;;8.70;99.90;;;;;;5090760;28;20417;-68
2023/11/10 00:05:29;;;;;;;3.40;0.20;;;8.70;99.90;;;;;;5090196;28;20899;-68
2023/11/10 00:07:55;;;;;;;3.50;0.20;;;8.70;99.90;;;;;;5090068;28;20394;-68
2023/11/10 00:10:21;;;;;;;3.40;0.30;;;8.60;99.90;;;;;;5090200;28;20401;-69
2023/11/10 00:12:47;;;;;;;3.50;0.40;;;8.40;99.90;;;;;;5090471;28;20413;-70
2023/11/10 00:15:13;;;;;;;3.50;0.30;;;8.40;1.00;;;;;;5091157;28;20486;-70
2023/11/10 00:17:39;;;;;;;3.80;0.43;;;8.40;1.00;;;;;;5090272;28;20404;-68
2023/11/10 00:20:07;;;;;;;3.50;0.30;;;8.50;1.00;;;;;;5087740;28;20484;-68
2023/11/10 00:22:33;;;;;;;3.80;0.60;;;8.60;1.00;;;;;;5090085;28;20409;-68
2023/11/10 00:25:00;;;;;;;4.10;0.60;;;8.70;1.00;;;;;;5090478;28;20382;-68
2023/11/10 00:27:26;;;;;;;3.75;0.40;;;8.70;1.00;;;;;;5087282;28;20397;-68
2023/11/10 00:29:52;;;;;;;4.60;0.50;;;8.90;1.00;;;;;;5080491;28;20422;-67
2023/11/10 00:32:17;;;;;;;3.80;0.40;;;8.90;1.00;;;;;;5090383;28;20797;-68
2023/11/10 00:34:43;;;;;;;3.50;0.40;;;9.00;1.00;;;;;;5090462;28;20464;-69
2023/11/10 00:37:08;;;;;;;3.70;0.60;;;8.90;99.90;;;;;;5089962;28;20481;-69
2023/11/10 00:39:34;;;;;;;4.22;0.50;;;9.00;99.90;;;;;;5090051;28;20464;-69
2023/11/10 00:42:00;;;;;;;3.70;0.50;;;9.00;99.90;;;;;;5089400;28;20449;-69
2023/11/10 00:44:27;;;;;;;3.80;0.60;;;9.10;99.90;;;;;;5087155;28;20426;-69
2023/11/10 00:46:53;;;;;;;4.60;0.77;;;9.30;99.90;;;;;;5089814;28;20430;-69
2023/11/10 00:49:18;;;;;;;3.97;0.75;;;9.40;99.90;;;;;;5089178;28;20783;-69
2023/11/10 00:51:44;;;;;;;3.90;0.70;;;9.30;99.90;;;;;;5089782;28;20482;-69
2023/11/10 00:54:10;;;;;;;4.60;0.80;;;9.30;99.90;;;;;;5089617;28;20415;-69
2023/11/10 00:56:35;;;;;;;4.15;0.73;;;9.20;99.90;;;;;;5089363;28;20405;-69
2023/11/10 00:59:01;;;;;;;3.97;0.80;;;9.20;99.90;;;;;;5089671;28;20496;-69
2023/11/10 01:01:27;;;;;;;3.80;0.60;;;9.20;99.90;;;;;;5089689;28;20386;-69
2023/11/10 01:03:56;;;;;;;4.20;1.10;;;9.20;99.90;;;;;;5089347;28;20876;-69
2023/11/10 01:06:22;;;;;;;3.80;0.47;;;9.20;99.90;;;;;;5089170;28;20439;-69
2023/11/10 01:08:48;;;;;;;4.00;0.60;;;9.20;99.90;;;;;;5089316;28;20844;-68
2023/11/10 01:11:13;;;;;;;3.72;0.60;;;9.10;99.90;;;;;;5089507;28;20503;-67
2023/11/10 01:13:39;;;;;;;4.10;0.80;;;8.90;99.90;;;;;;5089438;28;20404;-67
2023/11/10 01:16:05;;;;;;;3.97;0.57;;;8.90;99.90;;;;;;5089259;28;20390;-68
2023/11/10 01:18:31;;;;;;;3.90;0.50;;;8.90;99.90;;;;;;5089342;28;20911;-67
2023/11/10 01:20:57;;;;;;;4.57;0.90;;;8.90;99.90;;;;;;5089304;28;20493;-68
2023/11/10 01:23:23;;;;;;;3.50;0.43;;;8.90;99.90;;;;;;5088969;28;20404;-68
2023/11/10 01:25:49;;;;;;;4.50;0.60;;;8.90;99.90;;;;;;5088858;28;20429;-68
2023/11/10 01:28:14;;;;;;;3.93;0.60;;;9.00;99.90;;;;;;5089831;28;20516;-68
2023/11/10 01:30:41;;;;;;;3.80;0.55;;;9.00;99.90;;;;;;5079838;28;20895;-68
2023/11/10 01:33:09;;;;;;;6.70;0.60;;;9.00;99.90;;;;;;5086352;28;20401;-68
2023/11/10 01:35:35;;;;;;;3.70;0.60;;;9.00;99.90;;;;;;5089658;28;20409;-68
2023/11/10 01:38:01;;;;;;;3.90;0.60;;;9.10;99.90;;;;;;5089455;28;20433;-68
2023/11/10 01:40:28;;;;;;;5.20;0.80;;;9.10;92.10;;;;;;5086332;28;20394;-68
2023/11/10 01:42:54;;;;;;;3.83;0.40;;;9.10;5.00;;;;;;5089030;28;20431;-68
2023/11/10 01:45:19;;;;;;;4.00;0.50;;;9.10;1.00;;;;;;5079466;28;20410;-68
2023/11/10 01:47:46;;;;;;;3.50;0.30;;;9.10;1.00;;;;;;5089117;28;20806;-68
2023/11/10 01:50:13;;;;;;;3.70;0.50;;;9.10;1.00;;;;;;5089329;28;20394;-68
2023/11/10 01:52:41;;;;;;;3.50;0.30;;;9.10;1.00;;;;;;5088669;28;20896;-68
2023/11/10 01:55:09;;;;;;;3.70;0.40;;;9.10;1.00;;;;;;5086473;28;21273;-68
2023/11/10 01:57:35;;;;;;;3.80;0.50;;;9.00;1.00;;;;;;5088863;28;20405;-68
2023/11/10 02:00:01;;;;;;;3.60;0.50;;;9.00;1.00;;;;;;5089233;28;20402;-68
2023/11/10 02:02:27;;;;;;;3.60;0.47;;;9.00;1.00;;;;;;5087973;28;20745;-68
2023/11/10 02:04:52;;;;;;;3.60;0.40;;;9.10;1.00;;;;;;5092898;28;20398;-68
2023/11/10 02:07:18;;;;;;;3.50;0.40;;;9.10;1.00;;;;;;5092682;28;20749;-68
2023/11/10 02:09:44;;;;;;;4.00;0.40;;;9.20;1.00;;;;;;5093207;28;20405;-68
2023/11/10 02:12:09;;;;;;;3.80;0.40;;;9.10;1.00;;;;;;5093284;28;20420;-68
2023/11/10 02:14:38;;;;;;;3.50;0.30;;;9.20;1.00;;;;;;5093011;28;20400;-68
2023/11/10 02:17:03;;;;;;;3.50;0.30;;;9.20;1.00;;;;;;5092850;28;20851;-68
2023/11/10 02:19:29;;;;;;;3.50;0.30;;;9.20;1.00;;;;;;5093277;28;20463;-68
2023/11/10 02:21:54;;;;;;;3.50;0.30;;;9.20;1.00;;;;;;5092297;28;20725;-68
2023/11/10 02:24:24;;;;;;;4.90;0.90;;;9.20;1.00;;;;;;5080711;28;20504;-68
2023/11/10 02:26:50;;;;;;;3.50;0.40;;;9.10;1.00;;;;;;5090029;28;20422;-68
2023/11/10 02:29:15;;;;;;;3.90;0.40;;;9.00;1.00;;;;;;5093152;28;20409;-68
2023/11/10 02:31:41;;;;;;;3.70;0.50;;;9.10;1.00;;;;;;5092749;28;20406;-68
2023/11/10 02:34:07;;;;;;;3.50;0.30;;;9.00;1.00;;;;;;5089693;28;22170;-68
2023/11/10 02:36:33;;;;;;;3.55;0.40;;;9.00;1.00;;;;;;5092244;28;20965;-68
2023/11/10 02:38:59;;;;;;;4.00;0.60;;;9.10;1.00;;;;;;5091929;28;20386;-68
2023/11/10 02:41:24;;;;;;;3.70;0.30;;;9.10;35.20;;;;;;5092301;28;20942;-68
2023/11/10 02:43:50;;;;;;;4.10;0.50;;;9.00;13.70;;;;;;5092278;28;20756;-68
2023/11/10 02:46:15;;;;;;;3.50;0.30;;;9.10;50.30;;;;;;5092280;28;20421;-68
2023/11/10 02:48:41;;;;;;;3.50;0.40;;;9.10;41.50;;;;;;5092251;28;20522;-68
2023/11/10 02:51:06;;;;;;;3.50;0.30;;;9.10;28.50;;;;;;5091844;28;20892;-68
2023/11/10 02:53:32;;;;;;;3.50;0.37;;;9.10;22.80;;;;;;5091926;28;20401;-68
2023/11/10 02:55:58;;;;;;;3.50;0.30;;;9.00;33.50;;;;;;5092445;28;20424;-68
2023/11/10 02:58:24;;;;;;;3.58;0.35;;;9.10;99.90;;;;;;5092015;28;20478;-68
2023/11/10 03:00:53;;;;;;;3.67;0.30;;;9.10;14.00;;;;;;5082635;28;20531;-67
2023/11/10 03:03:19;;;;;;;3.70;0.30;;;9.20;68.20;;;;;;5091710;28;20389;-68
2023/11/10 03:05:44;;;;;;;7.80;0.40;;;9.30;1.00;;;;;;5091700;28;21223;-68
2023/11/10 03:08:10;;;;;;;4.30;0.50;;;9.30;1.00;;;;;;5091791;28;20390;-68
2023/11/10 03:10:35;;;;;;;4.30;0.60;;;9.30;1.00;;;;;;5091906;28;20930;-68
2023/11/10 03:13:02;;;;;;;3.60;0.30;;;9.30;1.00;;;;;;5091698;28;20398;-68
2023/11/10 03:15:28;;;;;;;3.50;0.30;;;9.30;1.00;;;;;;5088865;28;20729;-68
2023/11/10 03:17:55;;;;;;;3.78;0.60;;;9.20;1.00;;;;;;5091118;28;20413;-68
2023/11/10 03:20:20;;;;;;;4.20;0.50;;;9.20;1.00;;;;;;5090909;28;20394;-68
2023/11/10 03:22:46;;;;;;;4.15;0.73;;;9.20;1.00;;;;;;5091477;28;20957;-68
2023/11/10 03:25:11;;;;;;;3.50;0.40;;;9.20;1.00;;;;;;5091959;28;20423;-68
2023/11/10 03:27:38;;;;;;;3.75;0.60;;;9.00;1.00;;;;;;5092134;28;20398;-68
2023/11/10 03:30:04;;;;;;;4.60;0.47;;;8.80;1.00;;;;;;5091075;28;20405;-68
2023/11/10 03:32:32;;;;;;;3.70;0.50;;;8.90;1.00;;;;;;5091907;28;20892;-68
2023/11/10 03:34:57;;;;;;;3.50;0.30;;;9.00;1.00;;;;;;5090941;28;20447;-68
2023/11/10 03:37:23;;;;;;;6.60;0.30;;;8.90;1.00;;;;;;5090924;28;20469;-68
2023/11/10 03:39:49;;;;;;;3.60;0.40;;;8.90;1.00;;;;;;5091214;28;20397;-68
2023/11/10 03:42:14;;;;;;;3.60;0.40;;;8.90;1.00;;;;;;5091508;28;20405;-68
2023/11/10 03:44:40;;;;;;;3.50;0.40;;;9.00;1.00;;;;;;5091018;28;20445;-68
2023/11/10 03:47:05;;;;;;;3.60;0.30;;;9.00;1.00;;;;;;5091204;28;20417;-68
2023/11/10 03:49:33;;;;;;;3.50;0.32;;;9.00;1.00;;;;;;5090635;28;20884;-68
2023/11/10 03:51:58;;;;;;;3.50;0.32;;;8.90;1.00;;;;;;5090089;28;20410;-68
2023/11/10 03:54:24;;;;;;;3.90;0.30;;;8.90;1.00;;;;;;5090460;28;20409;-68
2023/11/10 03:56:50;;;;;;;3.50;0.30;;;8.90;1.00;;;;;;5081141;28;20421;-68
2023/11/10 03:59:15;;;;;;;3.70;0.40;;;9.00;1.00;;;;;;5091245;28;20453;-68
2023/11/10 04:01:41;;;;;;;3.50;0.30;;;8.90;1.00;;;;;;5090550;28;20760;-68
2023/11/10 04:04:09;;;;;;;3.80;0.40;;;9.00;1.00;;;;;;5090633;28;20393;-68
2023/11/10 04:06:35;;;;;;;3.50;0.30;;;9.00;1.00;;;;;;5089940;28;20448;-68
2023/11/10 04:09:02;;;;;;;4.00;0.30;;;9.00;1.00;;;;;;5090596;28;20394;-68
2023/11/10 04:11:28;;;;;;;3.50;0.30;;;9.00;1.00;;;;;;5087761;28;20398;-68
2023/11/10 04:13:54;;;;;;;3.50;0.30;;;9.10;1.00;;;;;;5090102;28;20899;-68
2023/11/10 04:16:21;;;;;;;3.63;0.40;;;9.10;1.00;;;;;;5090288;28;20416;-68
2023/11/10 04:18:49;;;;;;;3.87;0.43;;;9.10;1.00;;;;;;5090301;28;20382;-68
2023/11/10 04:21:15;;;;;;;3.60;0.30;;;9.00;1.00;;;;;;5090587;28;20401;-68
2023/11/10 04:23:41;;;;;;;3.50;0.38;;;9.00;1.00;;;;;;5090499;28;20398;-68
2023/11/10 04:26:07;;;;;;;3.60;0.30;;;9.00;1.00;;;;;;5089398;28;20421;-68
2023/11/10 04:28:36;;;;;;;3.50;0.30;;;8.90;1.00;;;;;;5081589;28;20401;-68
2023/11/10 04:31:02;;;;;;;3.60;0.30;;;9.00;1.00;;;;;;5090498;28;20406;-68
2023/11/10 04:33:28;;;;;;;3.50;0.22;;;9.00;1.00;;;;;;5089865;28;20383;-68
2023/11/10 04:35:54;;;;;;;3.50;0.30;;;9.00;1.00;;;;;;5090488;28;20459;-68
2023/11/10 04:38:20;;;;;;;3.60;0.60;;;9.00;1.00;;;;;;5090494;28;20451;-68
2023/11/10 04:40:46;;;;;;;3.50;0.30;;;9.00;1.00;;;;;;5088948;28;20501;-68
2023/11/10 04:43:11;;;;;;;3.50;0.30;;;9.10;1.00;;;;;;5087534;28;20394;-68
2023/11/10 04:45:37;;;;;;;3.50;0.30;;;9.00;1.00;;;;;;5089411;28;20425;-68
2023/11/10 04:48:04;;;;;;;3.40;0.20;;;9.00;1.00;;;;;;5089379;28;20752;-68
2023/11/10 04:50:36;;;;;;;3.40;0.20;;;8.90;1.00;;;;;;5089540;28;20475;-69
2023/11/10 04:53:03;;;;;;;3.40;0.20;;;8.90;1.00;;;;;;5089718;28;20409;-68
2023/11/10 04:55:29;;;;;;;5.20;0.70;;;8.90;1.00;;;;;;5089478;28;20888;-68
2023/11/10 04:57:54;;;;;;;3.50;0.30;;;9.00;1.00;;;;;;5089460;28;20485;-68
2023/11/10 05:00:23;;;;;;;3.45;0.20;;;8.90;1.00;;;;;;5089840;28;20398;-68
2023/11/10 05:02:49;;;;;;;3.50;0.30;;;9.00;1.00;;;;;;5089324;28;20374;-68
2023/11/10 05:05:15;;;;;;;3.50;0.30;;;9.00;1.00;;;;;;5089746;28;20907;-68
2023/11/10 05:07:41;;;;;;;3.40;0.20;;;9.00;1.00;;;;;;5089465;28;20414;-68
2023/11/10 05:10:08;;;;;;;3.80;0.40;;;9.00;1.00;;;;;;5090065;28;20402;-68
2023/11/10 05:12:37;;;;;;;3.70;0.40;;;9.10;1.00;;;;;;5089563;28;20898;-68
2023/11/10 05:15:07;;;;;;;3.60;0.30;;;9.00;1.00;;;;;;5089294;28;20403;-69
2023/11/10 05:17:39;;;;;;;3.50;0.20;;;8.90;1.00;;;;;;5089362;28;20386;-73
2023/11/10 05:20:05;;;;;;;4.00;0.60;;;9.00;1.00;;;;;;5089825;28;20393;-73
2023/11/10 05:22:32;;;;;;;3.70;0.30;;;9.10;1.00;;;;;;5071453;28;20392;-74
2023/11/10 05:24:58;;;;;;;3.80;0.50;;;9.20;1.00;;;;;;5077881;28;20463;-74
2023/11/10 05:27:24;;;;;;;3.70;0.30;;;9.20;1.00;;;;;;5082933;28;20445;-74
2023/11/10 05:29:51;;;;;;;4.17;0.50;;;9.30;1.00;;;;;;5085250;28;20900;-73
2023/11/10 05:32:17;;;;;;;3.60;0.40;;;9.30;1.00;;;;;;5085397;28;20389;-73
2023/11/10 05:34:43;;;;;;;3.60;0.30;;;9.10;1.00;;;;;;5085207;28;20406;-73
2023/11/10 05:37:10;;;;;;;3.50;0.20;;;9.10;1.00;;;;;;5081751;28;20390;-73
2023/11/10 05:39:36;;;;;;;4.70;0.40;;;9.20;1.00;;;;;;5085604;28;20396;-73
2023/11/10 05:42:01;;;;;;;3.50;0.30;;;9.10;1.00;;;;;;5090071;28;20409;-73
2023/11/10 05:44:27;;;;;;;3.50;0.20;;;9.10;1.00;;;;;;5093302;28;20539;-73
2023/11/10 05:46:52;;;;;;;5.10;0.40;;;9.20;1.00;;;;;;5093231;28;20467;-73
2023/11/10 05:49:18;;;;;;;3.65;0.40;;;9.20;1.00;;;;;;5089964;28;20407;-73
2023/11/10 05:51:44;;;;;;;4.30;0.50;;;9.30;1.00;;;;;;5083033;28;20405;-74
2023/11/10 05:54:11;;;;;;;3.90;0.40;;;9.20;1.00;;;;;;5083919;28;20393;-74
2023/11/10 05:56:37;;;;;;;3.60;0.30;;;9.20;1.00;;;;;;5074774;28;20390;-74
2023/11/10 05:59:03;;;;;;;3.70;0.50;;;9.00;1.00;;;;;;5093105;28;20396;-74
2023/11/10 06:01:28;;;;;;;3.50;0.20;;;9.00;1.00;;;;;;5093117;28;20748;-74
2023/11/10 06:03:56;;;;;;;3.50;0.20;;;9.00;1.00;;;;;;5092637;28;20439;-74
2023/11/10 06:06:24;;;;;;;3.50;0.20;;;9.10;1.00;;;;;;5083234;28;20832;-74
2023/11/10 06:08:54;;;;;;;3.60;0.20;;;9.10;1.00;;;;;;5092723;28;20883;-69
2023/11/10 06:11:20;;;;;;;3.50;0.20;;;9.20;1.00;;;;;;5093480;28;20390;-68
2023/11/10 06:13:49;;;;;;;3.50;0.30;;;9.20;1.00;;;;;;5092177;28;20398;-68
2023/11/10 06:16:19;;;;;;;3.50;0.20;;;9.20;1.00;;;;;;5093545;28;20493;-68
2023/11/10 06:18:45;;;;;;;3.60;0.30;;;9.10;1.00;;;;;;5092052;28;20402;-68
2023/11/10 06:21:11;;;;;;;3.60;0.30;;;9.10;1.00;;;;;;5087711;28;20390;-68
2023/11/10 06:23:37;;;;;;;4.00;0.50;;;9.00;1.00;;;;;;5088726;28;20387;-69
2023/11/10 06:26:03;;;;;;;3.90;0.40;;;9.00;1.00;;;;;;5087338;28;20414;-68
2023/11/10 06:28:28;;;;;;;4.30;0.50;;;8.90;1.00;;;;;;5085936;28;20390;-68
2023/11/10 06:30:55;;;;;;;3.60;0.40;;;8.80;1.00;;;;;;5092968;28;20429;-69
2023/11/10 06:33:21;;;;;;;3.70;0.50;;;8.70;1.00;;;;;;5092429;28;20492;-68
2023/11/10 06:35:47;;;;;;;3.55;0.28;;;8.80;1.00;;;;;;5092287;28;20990;-68
2023/11/10 06:38:13;;;;;;;3.60;0.40;;;8.80;1.00;;;;;;5091803;28;20421;-68
2023/11/10 06:40:39;;;;;;;3.50;0.30;;;8.80;1.00;;;;;;5091988;28;20421;-69
2023/11/10 06:43:04;;;;;;;3.60;0.40;;;8.80;1.00;;;;;;5091651;28;20390;-68
2023/11/10 06:45:30;;;;;;;3.70;0.40;;;8.70;1.00;;;;;;5091150;28;20441;-68
2023/11/10 06:47:59;;;;;;;3.70;0.50;;;8.80;1.00;;;;;;5090592;28;20381;-68
2023/11/10 06:50:24;;;;;;;3.50;0.30;;;8.80;1.00;;;;;;5091066;28;20393;-68
2023/11/10 06:52:50;;;;;;;3.50;0.20;;;8.90;1.00;;;;;;5090857;28;20386;-68
2023/11/10 06:55:16;;;;;;;3.50;0.30;;;9.00;1.00;;;;;;5091060;28;20945;-68
2023/11/10 06:57:42;;;;;;;3.60;0.30;;;8.90;1.00;;;;;;5090696;28;20477;-69
2023/11/10 07:00:10;;;;;;;3.50;0.30;;;8.80;1.00;;;;;;5092436;28;21628;-69
2023/11/10 07:02:36;;;;;;;3.63;0.35;;;8.80;1.00;;;;;;5092381;28;20741;-69
2023/11/10 07:05:01;;;;;;;3.60;0.40;;;8.90;1.00;;;;;;5089249;28;20416;-69
2023/11/10 07:07:27;;;;;;;3.80;0.40;;;9.00;1.00;;;;;;5082791;28;20459;-69
2023/11/10 07:09:53;;;;;;;3.50;0.30;;;9.10;1.00;;;;;;5092225;28;20829;-69
2023/11/10 07:12:18;;;;;;;3.80;0.40;;;9.20;1.00;;;;;;5105108;28;20394;-68
2023/11/10 07:14:44;;;;;;;3.70;0.30;;;9.30;1.00;;;;;;5095823;28;20432;-68
2023/11/10 07:17:17;;;;;;;4.00;0.40;;;9.40;1.00;;;;;;5092080;28;20379;-70
2023/11/10 07:19:42;;;;;;;3.60;0.40;;;9.50;1.00;;;;;;5092551;28;20624;-69
2023/11/10 07:22:08;;;;;;;3.60;0.40;;;9.70;1.00;;;;;;5092391;28;20524;-69
2023/11/10 07:24:34;;;;;;;3.60;0.30;;;9.80;1.00;;;;;;5092484;28;20427;-69
2023/11/10 07:26:59;;;;;;;3.60;0.30;;;9.80;1.00;;;;;;5092058;28;20837;-69
2023/11/10 07:29:25;;;;;;;5.20;0.80;;;9.90;1.00;;;;;;5092189;28;20386;-69
2023/11/10 07:31:51;;;;;;;3.70;0.50;;;10.10;1.00;;;;;;5091820;28;20424;-69
2023/11/10 07:34:18;;;;;;;3.80;0.50;;;10.40;1.00;;;;;;5092267;28;20471;-69
2023/11/10 07:36:44;;;;;;;4.20;0.70;;;10.50;1.00;;;;;;5094064;28;20402;-69
2023/11/10 07:39:11;;;;;;;3.80;0.40;;;10.50;1.00;;;;;;5092536;28;20849;-69
2023/11/10 07:41:37;;;;;;;3.90;0.63;;;10.40;1.00;;;;;;5091220;28;20406;-69
2023/11/10 07:44:03;;;;;;;3.90;0.60;;;10.30;1.00;;;;;;5091703;28;20438;-69
2023/11/10 07:46:28;;;;;;;3.70;0.30;;;10.20;1.00;;;;;;5091250;28;20421;-69
2023/11/10 07:48:54;;;;;;;4.20;0.50;;;10.10;1.00;;;;;;5091321;28;20390;-69
2023/11/10 07:51:19;;;;;;;3.85;0.45;;;10.00;1.00;;;;;;5091949;28;20447;-68
2023/11/10 07:53:44;;;;;;;3.73;0.40;;;10.00;1.00;;;;;;5091995;28;20402;-68
2023/11/10 07:56:10;;;;;;;3.70;0.40;;;10.00;1.00;;;;;;5091434;28;20382;-68
2023/11/10 07:58:36;;;;;;;4.40;0.80;;;9.90;1.00;;;;;;5091925;28;20871;-69
2023/11/10 08:01:02;;;;;;;4.07;0.60;;;10.00;1.00;;;;;;5090424;28;20812;-68
2023/11/10 08:03:28;;;;;;;4.30;0.50;;;10.00;1.00;;;;;;5091649;28;20409;-69
2023/11/10 08:05:53;;;;;;;5.13;0.60;;;10.00;1.00;;;;;;5091722;28;20446;-69
2023/11/10 08:08:19;;;;;;;4.00;0.60;;;10.10;1.00;;;;;;5091461;28;20390;-69
2023/11/10 08:10:45;;;;;;;3.90;0.40;;;10.20;1.00;;;;;;5094043;28;20917;-68
2023/11/10 08:13:11;;;;;;;3.80;0.60;;;10.40;1.00;;;;;;5091679;28;20383;-69
2023/11/10 08:15:36;;;;;;;4.30;0.50;;;10.60;1.00;;;;;;5091663;28;20406;-69
2023/11/10 08:18:02;;;;;;;4.07;0.77;;;10.70;1.00;;;;;;5091746;28;20386;-69
2023/11/10 08:20:27;;;;;;;3.90;0.40;;;10.90;1.00;;;;;;5092110;28;20787;-69
2023/11/10 08:22:53;;;;;;;5.40;0.40;;;10.90;1.00;;;;;;5091743;28;20394;-70
2023/11/10 08:25:18;;;;;;;3.88;0.40;;;10.80;1.00;;;;;;5091709;28;20876;-70
2023/11/10 08:27:44;;;;;;;4.90;0.50;;;11.10;1.00;;;;;;5091839;28;20383;-70
2023/11/10 08:30:10;;;;;;;3.90;0.40;;;11.10;1.00;;;;;;5091625;28;20394;-70
2023/11/10 08:32:36;;;;;;;4.50;0.50;;;11.00;1.00;;;;;;5091522;28;20922;-69
2023/11/10 08:35:02;;;;;;;4.20;0.50;;;10.80;1.00;;;;;;5091546;28;20463;-68
2023/11/10 08:37:28;;;;;;;4.00;0.30;;;10.80;1.00;;;;;;5091011;28;20405;-69
2023/11/10 08:39:53;;;;;;;5.10;0.60;;;10.50;1.00;;;;;;5090828;28;20394;-69
2023/11/10 08:42:19;;;;;;;4.13;0.77;;;10.50;1.00;;;;;;5090332;28;20398;-70
2023/11/10 08:44:46;;;;;;;5.70;0.60;;;10.50;1.00;;;;;;5090973;28;20872;-69
2023/11/10 08:47:12;;;;;;;4.70;0.50;;;10.70;1.00;;;;;;5090550;28;20410;-69
2023/11/10 08:49:39;;;;;;;3.70;0.40;;;10.70;1.00;;;;;;5090199;28;21296;-69
2023/11/10 08:52:05;;;;;;;4.50;0.60;;;10.70;1.00;;;;;;5090594;28;20420;-69
2023/11/10 08:54:30;;;;;;;3.80;0.50;;;10.80;1.00;;;;;;5090535;28;20417;-69
2023/11/10 08:56:56;;;;;;;4.60;0.60;;;10.80;1.00;;;;;;5090195;28;20914;-69
2023/11/10 08:59:22;;;;;;;3.80;0.40;;;10.70;1.00;;;;;;5090058;28;20382;-69
2023/11/10 09:01:49;;;;;;;3.70;0.30;;;10.60;1.00;;;;;;5090886;28;20398;-69
2023/11/10 09:04:15;;;;;;;6.45;0.60;;;10.40;1.00;;;;;;5090662;28;20890;-69
2023/11/10 09:06:41;;;;;;;3.70;0.40;;;10.40;1.00;;;;;;5090177;28;20460;-69
2023/11/10 09:09:08;;;;;;;4.60;0.40;;;10.30;1.00;;;;;;5090409;28;20432;-69
2023/11/10 09:11:33;;;;;;;4.00;0.60;;;10.20;1.00;;;;;;5090320;28;20398;-69
2023/11/10 09:13:59;;;;;;;3.70;0.30;;;10.20;1.00;;;;;;5090216;28;20420;-69
2023/11/10 09:16:25;;;;;;;3.90;0.40;;;10.30;1.00;;;;;;5090230;28;20398;-69
2023/11/10 09:18:52;;;;;;;3.90;0.40;;;10.30;1.00;;;;;;5090038;28;20394;-69
2023/11/10 09:21:18;;;;;;;3.97;0.45;;;10.60;1.00;;;;;;5090452;28;20980;-69
2023/11/10 09:23:43;;;;;;;3.80;0.40;;;10.70;1.00;;;;;;5091052;28;20489;-69
2023/11/10 09:26:09;;;;;;;3.90;0.50;;;10.90;1.00;;;;;;5089983;28;20445;-69
2023/11/10 09:28:35;;;;;;;3.90;0.30;;;10.90;1.00;;;;;;5089808;28;20935;-69
2023/11/10 09:31:00;;;;;;;3.80;0.30;;;10.90;1.00;;;;;;5090371;28;20526;-69
2023/11/10 09:33:26;;;;;;;3.80;0.30;;;11.20;1.00;;;;;;5089989;28;20464;-70
2023/11/10 09:35:52;;;;;;;4.20;0.75;;;11.70;1.00;;;;;;5089965;28;20956;-70
2023/11/10 09:38:21;;;;;;;3.80;0.30;;;11.70;99.90;;;;;;5090484;28;20522;-69
2023/11/10 09:40:46;;;;;;;4.50;0.45;;;11.70;99.90;;;;;;5089976;28;20398;-69
2023/11/10 09:43:13;;;;;;;3.80;0.30;;;11.70;99.90;;;;;;5089533;28;20388;-69
2023/11/10 09:45:50;;;;;;;3.90;0.40;;;11.60;99.90;;;;;;5089974;28;20424;-69
2023/11/10 09:48:16;;;;;;;4.90;0.50;;;11.30;99.90;;;;;;5090183;28;20761;-69
2023/11/10 09:50:43;;;;;;;4.20;0.40;;;11.40;99.90;;;;;;5090087;28;20457;-70
2023/11/10 09:53:09;;;;;;;4.13;0.52;;;11.40;99.90;;;;;;5089746;28;22050;-68
2023/11/10 09:55:35;;;;;;;4.85;0.70;;;10.90;99.90;;;;;;5089469;28;20471;-69
2023/11/10 09:58:01;;;;;;;5.50;0.60;;;10.80;99.90;;;;;;5089842;28;20389;-69
2023/11/10 10:00:28;;;;;;;3.90;0.30;;;10.60;99.90;;;;;;5089697;28;20401;-69
2023/11/10 10:02:53;;;;;;;3.90;0.40;;;10.70;99.90;;;;;;5089911;28;20397;-69
2023/11/10 10:05:20;;;;;;;4.00;0.40;;;10.70;1.00;;;;;;5089559;28;20876;-69
2023/11/10 10:07:46;;;;;;;3.80;0.30;;;10.80;99.90;;;;;;5090529;28;20936;-69
2023/11/10 10:10:13;;;;;;;3.80;0.30;;;11.00;99.90;;;;;;5089429;28;20421;-70
2023/11/10 10:12:39;;;;;;;3.80;0.40;;;11.70;99.90;;;;;;5089814;28;20394;-71
2023/11/10 10:15:05;;;;;;;3.80;0.30;;;13.80;99.90;;;;;;5089743;28;20420;-69
2023/11/10 10:17:32;;;;;;;4.70;0.70;;;14.30;99.90;;;;;;5089616;28;20386;-68
2023/11/10 10:20:17;;;;;;;4.13;0.45;;;15.70;99.90;;;;;;5089560;28;20386;-69
2023/11/10 10:22:48;;;;;;;4.10;0.45;;;16.10;99.90;;;;;;5089786;28;20482;-69
2023/11/10 10:25:15;;;;;;;4.10;0.40;;;16.00;99.90;;;;;;5093697;28;20421;-69
2023/11/10 10:27:42;;;;;;;4.50;0.60;;;16.70;99.90;;;;;;5093315;28;20872;-69
2023/11/10 10:30:08;;;;;;;4.10;0.38;;;17.00;99.90;;;;;;5092976;28;20786;-69
2023/11/10 10:32:33;;;;;;;4.30;0.50;;;16.40;99.90;;;;;;5093004;28;20394;-69
2023/11/10 10:34:59;;;;;;;4.40;0.60;;;15.90;99.90;;;;;;5093255;28;20465;-69
2023/11/10 10:37:29;;;;;;;4.50;0.60;;;16.00;99.90;;;;;;5093001;28;20390;-68
2023/11/10 10:39:59;;;;;;;4.30;0.60;;;15.70;99.90;;;;;;5092812;28;20393;-68
2023/11/10 10:42:34;;;;;;;4.38;0.50;;;15.70;99.90;;;;;;5092896;28;20406;-71
2023/11/10 10:45:01;;;;;;;4.20;0.50;;;16.00;99.90;;;;;;5092959;28;20382;-68
2023/11/10 10:47:28;;;;;;;4.80;0.45;;;15.50;99.90;;;;;;5093086;28;20414;-69
2023/11/10 10:49:55;;;;;;;4.93;0.60;;;15.00;99.90;;;;;;5092537;28;20402;-67
2023/11/10 10:52:23;;;;;;;4.40;0.40;;;15.80;99.90;;;;;;5093027;28;20388;-68
2023/11/10 10:54:48;;;;;;;4.40;0.50;;;15.50;99.90;;;;;;5092866;28;20382;-68
2023/11/10 10:57:15;;;;;;;4.70;0.50;;;15.90;99.90;;;;;;5093050;28;20879;-69
2023/11/10 10:59:42;;;;;;;4.30;0.40;;;16.20;99.90;;;;;;5092749;28;20398;-68
2023/11/10 11:02:10;;;;;;;4.85;0.50;;;16.20;99.90;;;;;;5093023;28;20413;-70
2023/11/10 11:05:08;;;;;;;4.10;0.50;;;14.90;99.90;;;;;;5090818;28;20425;-68
2023/11/10 11:08:11;;;;;;;4.20;0.40;;;15.80;99.90;;;;;;5092627;28;20424;-68
2023/11/10 11:10:50;;;;;;;4.50;0.40;;;16.00;99.90;;;;;;5092360;28;20390;-68
2023/11/10 11:13:36;;;;;;;4.20;0.50;;;15.50;99.90;;;;;;5092768;28;20382;-68
2023/11/10 11:16:30;;;;;;;4.50;0.40;;;15.30;99.90;;;;;;5092545;28;20413;-68
2023/11/10 11:19:21;;;;;;;4.53;0.52;;;15.10;99.90;;;;;;5092289;28;20391;-69
2023/11/10 11:21:49;;;;;;;4.10;0.40;;;15.60;99.90;;;;;;5092729;28;20443;-69
2023/11/10 11:24:23;;;;;;;4.20;0.50;;;15.10;99.90;;;;;;5092450;28;20397;-69
2023/11/10 11:27:00;;;;;;;4.18;0.45;;;14.40;99.90;;;;;;5092208;28;20414;-70
2023/11/10 11:29:34;;;;;;;4.20;0.50;;;13.90;99.90;;;;;;5091840;28;20378;-70
2023/11/10 11:32:03;;;;;;;4.40;0.50;;;13.40;99.90;;;;;;5091998;28;20397;-69
2023/11/10 11:34:28;;;;;;;4.30;0.50;;;13.50;99.90;;;;;;5090594;28;20876;-69
2023/11/10 11:36:57;;;;;;;4.10;0.47;;;13.70;99.90;;;;;;5091879;28;20370;-69
2023/11/10 11:39:22;;;;;;;4.00;0.30;;;13.70;99.90;;;;;;5091640;28;20390;-70
2023/11/10 11:41:49;;;;;;;4.20;0.45;;;13.40;99.90;;;;;;5092161;28;20491;-70
2023/11/10 11:44:32;;;;;;;4.40;0.70;;;14.00;99.90;;;;;;5091869;28;20461;-70
2023/11/10 11:47:04;;;;;;;4.10;0.40;;;13.80;99.90;;;;;;5091613;28;20418;-70
2023/11/10 11:49:29;;;;;;;4.00;0.40;;;13.60;99.90;;;;;;5091804;28;20413;-70
2023/11/10 11:51:56;;;;;;;4.10;0.40;;;13.40;99.90;;;;;;5091650;28;20385;-70
2023/11/10 11:54:26;;;;;;;4.10;0.50;;;12.70;99.90;;;;;;5091589;28;20378;-70
2023/11/10 11:56:53;;;;;;;4.37;0.40;;;12.60;99.90;;;;;;5091281;28;20394;-71
2023/11/10 11:59:19;;;;;;;5.20;0.50;;;12.40;99.90;;;;;;5091609;28;20390;-70
2023/11/10 12:01:45;;;;;;;4.90;0.85;;;12.50;99.90;;;;;;5091894;28;20899;-69
2023/11/10 12:04:10;;;;;;;5.70;0.93;;;12.00;99.90;;;;;;5091513;28;20389;-68
2023/11/10 12:06:36;;;;;;;4.40;0.50;;;11.80;99.90;;;;;;5087765;28;20410;-69
2023/11/10 12:09:06;;;;;;;4.10;0.40;;;11.70;99.90;;;;;;5088408;28;20862;-68
2023/11/10 12:11:33;;;;;;;4.10;0.40;;;11.50;99.90;;;;;;5091006;28;20386;-69
2023/11/10 12:13:59;;;;;;;4.20;0.40;;;11.80;99.90;;;;;;5090830;28;20386;-68
2023/11/10 12:16:27;;;;;;;4.00;0.40;;;11.80;99.90;;;;;;5090709;28;20933;-68
2023/11/10 12:18:53;;;;;;;4.00;0.30;;;11.80;99.90;;;;;;5090526;28;20752;-68
2023/11/10 12:21:18;;;;;;;4.00;0.30;;;11.60;99.90;;;;;;5090764;28;20381;-69
2023/11/10 12:23:44;;;;;;;6.40;0.43;;;11.80;99.90;;;;;;5091444;28;20790;-69
2023/11/10 12:26:10;;;;;;;4.40;0.40;;;11.90;99.90;;;;;;5090017;28;20860;-68
2023/11/10 12:28:36;;;;;;;4.00;0.40;;;12.10;99.90;;;;;;5092279;28;20441;-69
2023/11/10 12:31:02;;;;;;;5.00;0.40;;;12.30;99.90;;;;;;5095341;28;20391;-69
2023/11/10 12:33:28;;;;;;;4.30;0.50;;;12.30;99.90;;;;;;5093970;28;20431;-69
2023/11/10 12:35:56;;;;;;;4.20;0.60;;;12.30;99.90;;;;;;5070537;28;20458;-69
2023/11/10 12:38:23;;;;;;;4.20;0.50;;;12.40;99.90;;;;;;5079418;28;20457;-69
2023/11/10 12:40:53;;;;;;;4.10;0.50;;;12.40;99.90;;;;;;5087648;28;20409;-70
2023/11/10 12:43:22;;;;;;;4.00;0.40;;;12.30;99.90;;;;;;5073514;28;21003;-69
2023/11/10 12:45:47;;;;;;;4.00;0.40;;;12.30;99.90;;;;;;5072794;28;20407;-69
2023/11/10 12:48:14;;;;;;;4.22;0.40;;;11.90;99.90;;;;;;5070168;28;20892;-69
2023/11/10 12:50:45;;;;;;;4.80;0.57;;;11.70;99.90;;;;;;5079741;28;20404;-69
2023/11/10 12:53:11;;;;;;;5.00;0.60;;;11.90;99.90;;;;;;5076208;28;20514;-69
2023/11/10 12:55:37;;;;;;;4.03;0.40;;;12.10;99.90;;;;;;5072360;28;20406;-69
2023/11/10 12:58:04;;;;;;;4.00;0.40;;;12.10;99.90;;;;;;5070230;28;20411;-69